createdAt,value
2023-01-22T00:06:06.854Z,59.58
2023-01-22T00:16:12.332Z,60.91
2023-01-22T00:26:16.852Z,59.52
2023-01-22T00:36:22.328Z,58.79
2023-01-22T00:46:24.528Z,59.18
2023-01-22T00:56:28.362Z,60.00
2023-01-22T01:06:31.552Z,58.39
2023-01-22T01:16:33.914Z,59.27
2023-01-22T01:26:37.358Z,60.62
2023-01-22T01:36:48.620Z,61.08
2023-01-22T01:46:54.693Z,61.08
2023-01-22T01:57:18.201Z,59.72
2023-01-22T02:07:20.895Z,61.62
2023-01-22T02:17:23.052Z,63.46
2023-01-22T02:27:26.887Z,62.15
2023-01-22T02:37:29.558Z,61.51
2023-01-22T02:47:32.022Z,60.37
2023-01-22T02:57:34.300Z,62.30
2023-01-22T03:07:44.749Z,62.34
2023-01-22T03:18:05.897Z,61.36
2023-01-22T03:28:18.670Z,63.04
2023-01-22T03:38:26.685Z,64.91
2023-01-22T03:48:30.038Z,64.41
2023-01-22T03:58:33.218Z,65.48
2023-01-22T04:08:36.935Z,66.01
2023-01-22T04:18:40.188Z,65.24
2023-01-22T04:29:02.701Z,67.25
2023-01-22T04:39:05.657Z,66.61
2023-01-22T04:49:08.865Z,66.34
2023-01-22T04:59:11.735Z,65.81
2023-01-22T05:09:14.067Z,66.06
2023-01-22T05:19:30.859Z,65.65
2023-01-22T05:29:33.074Z,65.53
2023-01-22T05:39:47.621Z,65.60
2023-01-22T05:49:52.012Z,65.40
2023-01-22T05:59:54.317Z,66.08
2023-01-22T06:09:56.654Z,66.20
2023-01-22T06:19:59.290Z,66.95
2023-01-22T06:30:02.119Z,66.46
2023-01-22T06:40:05.552Z,66.38
2023-01-22T06:50:17.425Z,66.82
2023-01-22T07:00:20.770Z,66.44
2023-01-22T07:10:23.107Z,66.44
2023-01-22T07:20:25.321Z,67.40
2023-01-22T07:30:27.917Z,65.43
2023-01-22T07:40:30.069Z,64.98
2023-01-22T07:50:33.505Z,66.09
2023-01-22T08:00:36.868Z,66.37
2023-01-22T08:10:39.483Z,65.47
2023-01-22T08:20:44.061Z,65.12
2023-01-22T08:30:47.106Z,65.28
2023-01-22T08:40:52.548Z,64.68
2023-01-22T08:50:54.914Z,64.96
2023-01-22T09:00:58.484Z,66.22
2023-01-22T09:11:00.941Z,64.62
2023-01-22T09:21:04.242Z,64.86
2023-01-22T09:31:06.428Z,63.97
2023-01-22T09:41:20.644Z,64.29
2023-01-22T09:51:23.005Z,65.29
2023-01-22T10:01:26.641Z,63.74
2023-01-22T10:11:29.085Z,64.03
2023-01-22T10:21:52.874Z,64.15
2023-01-22T10:31:58.007Z,64.07
2023-01-22T10:42:02.009Z,62.15
2023-01-22T10:52:22.350Z,66.53
2023-01-22T11:02:26.411Z,63.84
2023-01-22T11:12:36.094Z,63.42
2023-01-22T11:22:40.074Z,65.23
2023-01-22T11:32:51.192Z,63.27
2023-01-22T11:43:22.883Z,66.39
2023-01-22T11:53:24.951Z,65.19
2023-01-22T12:03:52.870Z,64.54
2023-01-22T12:14:23.014Z,65.21
2023-01-22T12:24:37.454Z,64.12
2023-01-22T12:34:42.407Z,63.09
2023-01-22T12:45:03.039Z,63.02
2023-01-22T12:55:31.918Z,63.31
2023-01-22T13:05:35.237Z,66.85
2023-01-22T13:15:38.675Z,63.74
2023-01-22T13:25:43.009Z,64.73
2023-01-22T13:35:46.704Z,64.79
2023-01-22T13:45:50.675Z,65.07
2023-01-22T13:55:53.236Z,63.63
2023-01-22T14:06:05.820Z,64.60
2023-01-22T14:16:08.606Z,66.67
2023-01-22T14:26:10.987Z,65.80
2023-01-22T14:36:13.153Z,65.84
2023-01-22T14:46:15.476Z,64.57
2023-01-22T14:56:17.817Z,65.83
2023-01-22T15:06:20.355Z,65.98
2023-01-22T15:16:22.518Z,66.66
2023-01-22T15:26:25.780Z,64.32
2023-01-22T15:36:32.810Z,64.46
2023-01-22T15:46:36.814Z,63.87
2023-01-22T15:56:40.241Z,66.73
2023-01-22T16:06:42.490Z,64.03
2023-01-22T16:16:44.817Z,65.97
2023-01-22T16:26:46.984Z,65.64
2023-01-22T16:36:49.265Z,66.13
2023-01-22T16:46:54.188Z,66.72
2023-01-22T16:56:57.922Z,64.41
2023-01-22T17:07:00.463Z,66.34
2023-01-22T17:17:02.983Z,65.75
2023-01-22T17:27:05.335Z,65.18
2023-01-22T17:37:11.091Z,66.71
2023-01-22T17:47:13.653Z,65.65
2023-01-22T17:57:16.004Z,65.45
2023-01-22T18:07:18.306Z,66.57
2023-01-22T18:17:20.445Z,65.17
2023-01-22T18:27:22.733Z,66.24
2023-01-22T18:37:24.836Z,65.97
2023-01-22T18:47:29.642Z,66.10
2023-01-22T18:57:35.292Z,65.63
2023-01-22T19:07:39.103Z,65.11
2023-01-22T19:17:41.215Z,65.45
2023-01-22T19:27:43.591Z,67.23
2023-01-22T19:37:45.768Z,65.51
2023-01-22T19:47:48.648Z,67.16
2023-01-22T19:57:50.919Z,65.06
2023-01-22T20:07:56.417Z,66.62
2023-01-22T20:17:58.600Z,66.45
2023-01-22T20:28:01.263Z,64.32
2023-01-22T20:38:03.596Z,66.58
2023-01-22T20:48:06.003Z,65.66
2023-01-22T20:58:08.195Z,65.73
2023-01-22T21:08:10.590Z,66.35
2023-01-22T21:18:12.831Z,66.28
2023-01-22T21:28:15.261Z,65.33
2023-01-22T21:38:20.711Z,64.76
2023-01-22T21:48:22.946Z,64.77
2023-01-22T21:58:26.090Z,66.78
2023-01-22T22:08:28.754Z,66.22
2023-01-22T22:18:31.469Z,65.20
2023-01-22T22:28:34.933Z,65.61
2023-01-22T22:38:37.761Z,64.67
2023-01-22T22:48:39.966Z,65.40
2023-01-22T22:58:42.401Z,65.86
2023-01-22T23:08:47.338Z,65.62
2023-01-22T23:18:51.685Z,65.13
2023-01-22T23:28:57.310Z,65.27
2023-01-22T23:38:59.495Z,65.58
2023-01-22T23:49:03.157Z,66.62
2023-01-22T23:59:05.715Z,63.94
